createdAt,value
2016-12-11T00:00:44.489Z,72.67
2016-12-11T00:01:44.544Z,73.43
2016-12-11T00:02:44.462Z,74.18
2016-12-11T00:03:44.445Z,75.7
2016-12-11T00:04:44.433Z,77.69
2016-12-11T00:05:44.423Z,77.31
2016-12-11T00:06:44.406Z,77.78
2016-12-11T00:07:44.392Z,78.07
2016-12-11T00:08:44.382Z,79.49
2016-12-11T00:09:44.362Z,79.96
2016-12-11T00:10:44.347Z,79.68
2016-12-11T00:11:44.335Z,79.68
2016-12-11T00:12:44.322Z,78.83
2016-12-11T00:13:44.312Z,78.16
2016-12-11T00:14:44.292Z,78.92
2016-12-11T00:15:44.278Z,79.58
2016-12-11T00:16:44.262Z,79.87
2016-12-11T00:17:44.250Z,81.2
2016-12-11T00:18:44.239Z,81.52
2016-12-11T00:19:44.220Z,81.24
2016-12-11T00:20:44.207Z,81.48
2016-12-11T00:21:44.193Z,82.18
2016-12-11T00:22:44.181Z,83.32
2016-12-11T00:23:44.167Z,84.17
2016-12-11T00:24:44.155Z,83.28
2016-12-11T00:25:44.138Z,84.65
2016-12-11T00:26:44.127Z,84.55
2016-12-11T00:27:44.115Z,85.69
2016-12-11T00:28:44.095Z,86.35
2016-12-11T00:29:44.084Z,87.49
2016-12-11T00:30:44.069Z,88.16
2016-12-11T00:31:44.058Z,88.44
2016-12-11T00:32:44.043Z,87.77
2016-12-11T00:33:44.025Z,87.59
2016-12-11T00:34:44.016Z,87.54
2016-12-11T00:35:44.000Z,87.54
2016-12-11T00:36:43.988Z,86.69
2016-12-11T00:37:43.970Z,85.65
2016-12-11T00:38:43.959Z,84.61
2016-12-11T00:39:43.943Z,83.66
2016-12-11T00:40:43.933Z,83.18
2016-12-11T00:41:43.917Z,83
2016-12-11T00:42:43.903Z,82.14
2016-12-11T00:43:43.890Z,80.91
2016-12-11T00:44:43.873Z,79.58
2016-12-11T00:45:43.863Z,78.07
2016-12-11T00:46:43.848Z,77.5
2016-12-11T00:47:43.831Z,76.65
2016-12-11T00:48:43.818Z,75.66
2016-12-11T00:49:43.804Z,75.28
2016-12-11T00:50:43.797Z,75.19
2016-12-11T00:51:43.777Z,74.05
2016-12-11T00:52:43.787Z,73.3
2016-12-11T00:53:44.063Z,72.92
2016-12-11T00:54:43.734Z,72.63
2016-12-11T00:55:43.726Z,71.78
2016-12-11T00:56:43.709Z,72.44
2016-12-11T00:57:43.693Z,72.25
2016-12-11T00:58:43.677Z,73.71
2016-12-11T00:59:43.664Z,74.15
2016-12-11T01:00:43.651Z,74.52
2016-12-11T01:01:43.635Z,75.09
2016-12-11T01:02:43.620Z,75.09
2016-12-11T01:03:43.606Z,75.28
2016-12-11T01:04:43.600Z,74.85
2016-12-11T01:05:43.579Z,73.01
2016-12-11T01:06:43.563Z,71.78
2016-12-11T01:07:43.548Z,71.72
2016-12-11T01:08:43.535Z,71.72
2016-12-11T01:09:43.522Z,71.25
2016-12-11T01:10:43.508Z,71.15
2016-12-11T01:11:43.493Z,71.88
2016-12-11T01:12:43.479Z,72.38
2016-12-11T01:13:43.465Z,73.33
2016-12-11T01:14:43.448Z,74.28
2016-12-11T01:15:43.437Z,74.85
2016-12-11T01:16:43.421Z,74.95
2016-12-11T01:17:43.406Z,74.09
2016-12-11T01:18:43.392Z,72.86
2016-12-11T01:19:43.379Z,72.29
2016-12-11T01:20:43.364Z,69.54
2016-12-11T01:21:43.371Z,67.74
2016-12-11T01:22:43.335Z,65.94
2016-12-11T01:23:43.319Z,64.9
2016-12-11T01:24:43.305Z,66.6
2016-12-11T01:25:43.293Z,64.9
2016-12-11T01:26:43.281Z,64.14
2016-12-11T01:27:43.266Z,64.42
2016-12-11T01:28:43.248Z,62.05
2016-12-11T01:29:43.233Z,63.01
2016-12-11T01:30:43.220Z,64.61
2016-12-11T01:31:43.210Z,65.94
2016-12-11T01:32:43.192Z,66.32
2016-12-11T01:33:43.182Z,67.65
2016-12-11T01:34:43.163Z,68.4
2016-12-11T01:35:43.150Z,68.59
2016-12-11T01:36:43.138Z,68.69
2016-12-11T01:37:43.439Z,68.4
2016-12-11T01:38:43.428Z,68.12
2016-12-11T01:39:43.090Z,67.36
2016-12-11T01:40:43.082Z,67.08
2016-12-11T01:41:43.064Z,67.55
2016-12-11T01:42:43.052Z,67.55
2016-12-11T01:43:43.035Z,67.18
2016-12-11T01:44:43.022Z,66.99
2016-12-11T01:45:43.008Z,65.75
2016-12-11T01:46:42.995Z,66.32
2016-12-11T01:47:42.983Z,65.94
2016-12-11T01:48:42.965Z,66.41
2016-12-11T01:49:42.952Z,67.18
2016-12-11T01:50:42.935Z,67.18
2016-12-11T01:51:42.922Z,67.36
2016-12-11T01:52:42.947Z,67.46
2016-12-11T01:53:42.896Z,66.8
2016-12-11T01:54:42.882Z,66.13
2016-12-11T01:55:42.869Z,64.9
2016-12-11T01:56:42.857Z,63.48
2016-12-11T01:57:42.837Z,62.34
2016-12-11T01:58:42.827Z,60.44
2016-12-11T01:59:42.810Z,58.84
2016-12-11T02:00:42.796Z,58.65
2016-12-11T02:01:42.785Z,59.5
2016-12-11T02:02:42.770Z,59.22
2016-12-11T02:03:42.756Z,59.03
2016-12-11T02:04:42.741Z,59.69
2016-12-11T02:05:42.736Z,58.93
2016-12-11T02:06:42.714Z,58.74
2016-12-11T02:07:42.701Z,58.65
2016-12-11T02:08:42.687Z,58.93
2016-12-11T02:09:42.674Z,59.41
2016-12-11T02:10:42.688Z,58.84
2016-12-11T02:11:42.644Z,58.39
2016-12-11T02:12:42.630Z,58.39
2016-12-11T02:13:42.618Z,58.2
2016-12-11T02:14:42.605Z,58.39
2016-12-11T02:15:42.589Z,57.54
2016-12-11T02:16:42.889Z,58.48
2016-12-11T02:17:42.561Z,59.25
2016-12-11T02:18:42.546Z,58.96
2016-12-11T02:19:42.534Z,58.58
2016-12-11T02:20:42.519Z,58.77
2016-12-11T02:21:42.507Z,58.96
2016-12-11T02:22:42.492Z,58.77
2016-12-11T02:23:42.477Z,58.67
2016-12-11T02:24:42.464Z,59.15
2016-12-11T02:25:42.450Z,59.91
2016-12-11T02:26:42.437Z,60.19
2016-12-11T02:27:42.420Z,61.71
2016-12-11T02:28:42.409Z,62.56
2016-12-11T02:29:42.394Z,62.28
2016-12-11T02:30:42.381Z,62.37
2016-12-11T02:31:42.367Z,61.9
2016-12-11T02:32:42.354Z,62.18
2016-12-11T02:33:42.339Z,61.61
2016-12-11T02:34:42.326Z,61.71
2016-12-11T02:35:42.313Z,61.52
2016-12-11T02:36:42.300Z,63.51
2016-12-11T02:37:42.285Z,65.88
2016-12-11T02:38:42.271Z,65.88
2016-12-11T02:39:42.260Z,65.78
2016-12-11T02:40:42.242Z,65.03
2016-12-11T02:41:42.256Z,63.95
2016-12-11T02:42:42.216Z,63.7
2016-12-11T02:43:42.202Z,63.29
2016-12-11T02:44:42.187Z,64.23
2016-12-11T02:45:42.174Z,65.19
2016-12-11T02:46:42.163Z,64.9
2016-12-11T02:47:42.147Z,65.28
2016-12-11T02:48:42.134Z,64.9
2016-12-11T02:49:42.123Z,65.19
2016-12-11T02:50:42.106Z,66.22
2016-12-11T02:51:42.092Z,65.84
2016-12-11T02:52:42.079Z,66.89
2016-12-11T02:53:42.065Z,67.55
2016-12-11T02:54:42.363Z,67.18
2016-12-11T02:55:42.035Z,67.36
2016-12-11T02:56:42.023Z,67.83
2016-12-11T02:57:42.008Z,67.74
2016-12-11T02:58:41.995Z,67.83
2016-12-11T02:59:41.979Z,69.45
2016-12-11T03:00:41.966Z,68.31
2016-12-11T03:01:41.959Z,69.35
2016-12-11T03:02:41.941Z,68.98
2016-12-11T03:03:41.921Z,69.45
2016-12-11T03:04:41.908Z,69.73
2016-12-11T03:05:41.896Z,68.5
2016-12-11T03:06:41.880Z,68.31
2016-12-11T03:07:41.868Z,68.5
2016-12-11T03:08:41.854Z,68.4
2016-12-11T03:09:41.840Z,66.99
2016-12-11T03:10:41.825Z,66.99
2016-12-11T03:11:41.809Z,66.89
2016-12-11T03:12:41.797Z,66.51
2016-12-11T03:13:41.779Z,66.6
2016-12-11T03:14:42.084Z,66.89
2016-12-11T03:15:41.754Z,66.13
2016-12-11T03:16:41.740Z,65.84
2016-12-11T03:17:41.725Z,66.03
2016-12-11T03:18:41.713Z,64.42
2016-12-11T03:19:41.697Z,62.91
2016-12-11T03:20:41.683Z,60.92
2016-12-11T03:21:41.667Z,61.02
2016-12-11T03:22:41.656Z,62.34
2016-12-11T03:23:41.641Z,62.05
2016-12-11T03:24:41.627Z,61.58
2016-12-11T03:25:41.610Z,61.21
2016-12-11T03:26:41.598Z,61.4
2016-12-11T03:27:41.584Z,60.16
2016-12-11T03:28:41.569Z,60.73
2016-12-11T03:29:41.555Z,60.54
2016-12-11T03:30:41.541Z,60.73
2016-12-11T03:31:41.528Z,60.73
2016-12-11T03:32:41.517Z,59.97
2016-12-11T03:33:41.501Z,58.65
2016-12-11T03:34:41.486Z,58.74
2016-12-11T03:35:41.472Z,59.31
2016-12-11T03:36:41.461Z,59.31
2016-12-11T03:37:41.441Z,59.69
2016-12-11T03:38:41.741Z,59.5
2016-12-11T03:39:41.411Z,60.54
2016-12-11T03:40:41.399Z,60.64
2016-12-11T03:41:41.385Z,60.44
2016-12-11T03:42:41.370Z,61.58
2016-12-11T03:43:41.359Z,61.77
2016-12-11T03:44:41.343Z,60.64
2016-12-11T03:45:41.330Z,60.73
2016-12-11T03:46:41.339Z,61.4
2016-12-11T03:47:41.300Z,59.97
2016-12-11T03:48:41.285Z,59.12
2016-12-11T03:49:41.269Z,56.46
2016-12-11T03:50:41.256Z,57.32
2016-12-11T03:51:41.242Z,58.36
2016-12-11T03:52:41.228Z,58.65
2016-12-11T03:53:41.215Z,56.56
2016-12-11T03:54:41.198Z,55.8
2016-12-11T03:55:41.183Z,55.8
2016-12-11T03:56:41.171Z,55.9
2016-12-11T03:57:41.156Z,55.05
2016-12-11T03:58:41.149Z,56.56
2016-12-11T03:59:41.128Z,56.56
2016-12-11T04:00:41.114Z,56.18
2016-12-11T04:01:41.136Z,55.14
2016-12-11T04:02:41.396Z,54.47
2016-12-11T04:03:41.071Z,54.57
2016-12-11T04:04:41.054Z,53.72
2016-12-11T04:05:41.043Z,52.48
2016-12-11T04:06:41.029Z,50.4
2016-12-11T04:07:41.014Z,50.59
2016-12-11T04:08:41.000Z,50.59
2016-12-11T04:09:40.988Z,51.07
2016-12-11T04:10:40.970Z,51.82
2016-12-11T04:11:40.957Z,52.39
2016-12-11T04:12:40.942Z,52.58
2016-12-11T04:13:41.243Z,52.77
2016-12-11T04:14:40.914Z,52.2
2016-12-11T04:15:41.217Z,50.69
2016-12-11T04:16:40.887Z,50.31
2016-12-11T04:17:40.872Z,50.59
2016-12-11T04:18:40.857Z,50.97
2016-12-11T04:19:40.843Z,50.78
2016-12-11T04:20:40.830Z,51.45
2016-12-11T04:21:40.812Z,51.35
2016-12-11T04:22:40.800Z,51.35
2016-12-11T04:23:40.789Z,51.07
2016-12-11T04:24:40.772Z,50.49
2016-12-11T04:25:40.761Z,50.59
2016-12-11T04:26:40.744Z,50.69
2016-12-11T04:27:40.730Z,51.64
2016-12-11T04:28:40.717Z,52.29
2016-12-11T04:29:40.703Z,52.68
2016-12-11T04:30:40.691Z,51.64
2016-12-11T04:31:40.674Z,52.2
2016-12-11T04:32:40.661Z,52.29
2016-12-11T04:33:40.643Z,52.11
2016-12-11T04:34:40.632Z,51.26
2016-12-11T04:35:40.616Z,51.35
2016-12-11T04:36:40.606Z,51.73
2016-12-11T04:37:40.589Z,51.92
2016-12-11T04:38:40.578Z,52.2
2016-12-11T04:39:40.560Z,51.73
2016-12-11T04:40:40.547Z,51.64
2016-12-11T04:41:40.534Z,51.73
2016-12-11T04:42:40.519Z,52.2
2016-12-11T04:43:40.506Z,52.96
2016-12-11T04:44:40.491Z,52.68
2016-12-11T04:45:40.477Z,52.96
2016-12-11T04:46:40.465Z,52.58
2016-12-11T04:47:40.450Z,52.68
2016-12-11T04:48:40.436Z,52.68
2016-12-11T04:49:40.423Z,52.58
2016-12-11T04:50:40.407Z,52.87
2016-12-11T04:51:40.399Z,53.06
2016-12-11T04:52:40.380Z,52.29
2016-12-11T04:53:40.366Z,51.92
2016-12-11T04:54:40.351Z,52.11
2016-12-11T04:55:40.343Z,51.45
2016-12-11T04:56:40.322Z,50.97
2016-12-11T04:57:40.314Z,50.78
2016-12-11T04:58:40.299Z,50.69
2016-12-11T04:59:40.279Z,50.4
2016-12-11T05:00:40.266Z,50.59
2016-12-11T05:01:40.252Z,49.93
2016-12-11T05:02:40.238Z,49.74
2016-12-11T05:03:40.226Z,49.55
2016-12-11T05:04:40.209Z,48.89
2016-12-11T05:05:40.201Z,49.17
2016-12-11T05:06:40.182Z,48.89
2016-12-11T05:07:40.169Z,49.17
2016-12-11T05:08:40.156Z,48.7
2016-12-11T05:09:40.140Z,49.17
2016-12-11T05:10:40.128Z,48.79
2016-12-11T05:11:40.111Z,47.75
2016-12-11T05:12:40.099Z,47.75
2016-12-11T05:13:40.084Z,47.28
2016-12-11T05:14:40.069Z,47.37
2016-12-11T05:15:40.054Z,47.28
2016-12-11T05:16:40.038Z,47.56
2016-12-11T05:17:40.028Z,47.94
2016-12-11T05:18:40.013Z,47.94
2016-12-11T05:19:39.996Z,47.56
2016-12-11T05:20:39.985Z,47.56
2016-12-11T05:21:39.969Z,47.56
2016-12-11T05:22:39.957Z,47.37
2016-12-11T05:23:39.944Z,45.38
2016-12-11T05:24:39.930Z,44.62
2016-12-11T05:25:39.913Z,44.53
2016-12-11T05:26:39.897Z,44.62
2016-12-11T05:27:39.884Z,44.53
2016-12-11T05:28:39.869Z,43.77
2016-12-11T05:29:39.856Z,43.3
2016-12-11T05:30:39.842Z,43.77
2016-12-11T05:31:39.826Z,44.34
2016-12-11T05:32:39.813Z,44.81
2016-12-11T05:33:39.800Z,45.1
2016-12-11T05:34:39.787Z,45.69
2016-12-11T05:35:39.773Z,45.1
2016-12-11T05:36:39.759Z,44.84
2016-12-11T05:37:39.743Z,44.84
2016-12-11T05:38:39.730Z,44.91
2016-12-11T05:39:39.715Z,44.84
2016-12-11T05:40:39.701Z,44.24
2016-12-11T05:41:39.686Z,44.93
2016-12-11T05:42:39.672Z,44.74
2016-12-11T05:43:39.659Z,45.69
2016-12-11T05:44:39.646Z,45.86
2016-12-11T05:45:39.631Z,45.76
2016-12-11T05:46:39.616Z,45.57
2016-12-11T05:47:39.602Z,46.26
2016-12-11T05:48:39.590Z,46.07
2016-12-11T05:49:39.572Z,46.14
2016-12-11T05:50:39.561Z,46.9
2016-12-11T05:51:39.546Z,46.71
2016-12-11T05:52:39.556Z,46.16
2016-12-11T05:53:39.518Z,45.19
2016-12-11T05:54:39.502Z,44.62
2016-12-11T05:55:39.489Z,44.91
2016-12-11T05:56:39.475Z,43.41
2016-12-11T05:57:39.461Z,43.04
2016-12-11T05:58:39.447Z,44.65
2016-12-11T05:59:39.434Z,43.32
2016-12-11T06:00:39.418Z,43.98
2016-12-11T06:01:39.406Z,44.36
2016-12-11T06:02:39.390Z,45.59
2016-12-11T06:03:39.376Z,46.35
2016-12-11T06:04:39.365Z,47.3
2016-12-11T06:05:39.347Z,47.58
2016-12-11T06:06:39.335Z,47.39
2016-12-11T06:07:39.320Z,47.11
2016-12-11T06:08:39.306Z,47.77
2016-12-11T06:09:39.291Z,47.68
2016-12-11T06:10:39.278Z,47.58
2016-12-11T06:11:39.262Z,47.68
2016-12-11T06:12:39.249Z,47.68
2016-12-11T06:13:39.237Z,47.58
2016-12-11T06:14:39.222Z,47.58
2016-12-11T06:15:39.211Z,47.49
2016-12-11T06:16:39.193Z,47.58
2016-12-11T06:17:39.180Z,47.87
2016-12-11T06:18:39.166Z,47.87
2016-12-11T06:19:39.154Z,46.92
2016-12-11T06:20:39.137Z,47.49
2016-12-11T06:21:39.122Z,46.64
2016-12-11T06:22:39.112Z,47.39
2016-12-11T06:23:39.409Z,47.58
2016-12-11T06:24:39.083Z,48.25
2016-12-11T06:25:39.069Z,48.72
2016-12-11T06:26:39.053Z,48.06
2016-12-11T06:27:39.042Z,47.49
2016-12-11T06:28:39.030Z,47.39
2016-12-11T06:29:39.012Z,48.25
2016-12-11T06:30:39.000Z,48.15
2016-12-11T06:31:38.986Z,47.49
2016-12-11T06:32:38.971Z,47.2
2016-12-11T06:33:38.956Z,46.35
2016-12-11T06:34:38.942Z,46.16
2016-12-11T06:35:38.927Z,46.35
2016-12-11T06:36:38.913Z,46.16
2016-12-11T06:37:38.903Z,46.45
2016-12-11T06:38:38.887Z,45.59
2016-12-11T06:39:38.874Z,45.59
2016-12-11T06:40:38.861Z,44.65
2016-12-11T06:41:38.845Z,44.36
2016-12-11T06:42:38.831Z,44.84
2016-12-11T06:43:38.818Z,46.45
2016-12-11T06:44:38.802Z,46.26
2016-12-11T06:45:38.793Z,46.83
2016-12-11T06:46:38.778Z,47.3
2016-12-11T06:47:38.770Z,47.77
2016-12-11T06:48:38.747Z,47.2
2016-12-11T06:49:38.733Z,47.11
2016-12-11T06:50:38.721Z,46.54
2016-12-11T06:51:38.707Z,45.5
2016-12-11T06:52:38.693Z,45.03
2016-12-11T06:53:38.681Z,44.93
2016-12-11T06:54:38.665Z,44.08
2016-12-11T06:55:38.650Z,43.41
2016-12-11T06:56:38.637Z,44.27
2016-12-11T06:57:38.624Z,44.27
2016-12-11T06:58:38.610Z,43.79
2016-12-11T06:59:38.596Z,44.84
2016-12-11T07:00:38.579Z,43.6
2016-12-11T07:01:38.567Z,43.7
2016-12-11T07:02:38.551Z,43.98
2016-12-11T07:03:38.539Z,44.74
2016-12-11T07:04:38.528Z,45.12
2016-12-11T07:05:38.512Z,45.4
2016-12-11T07:06:38.500Z,45.69
2016-12-11T07:07:38.483Z,45.21
2016-12-11T07:08:38.471Z,45.59
2016-12-11T07:09:38.457Z,45.12
2016-12-11T07:10:38.444Z,44.84
2016-12-11T07:11:38.429Z,44.36
2016-12-11T07:12:38.416Z,43.6
2016-12-11T07:13:38.401Z,43.7
2016-12-11T07:14:38.388Z,43.98
2016-12-11T07:15:38.377Z,44.46
2016-12-11T07:16:38.361Z,44.08
2016-12-11T07:17:38.349Z,43.88
2016-12-11T07:18:38.337Z,43.6
2016-12-11T07:19:38.635Z,43.79
2016-12-11T07:20:38.306Z,43.41
2016-12-11T07:21:38.293Z,44.36
2016-12-11T07:22:38.280Z,43.88
2016-12-11T07:23:38.266Z,43.88
2016-12-11T07:24:38.253Z,44.55
2016-12-11T07:25:38.237Z,44.55
2016-12-11T07:26:38.224Z,44.55
2016-12-11T07:27:38.212Z,44.08
2016-12-11T07:28:38.198Z,43.79
2016-12-11T07:29:38.182Z,43.7
2016-12-11T07:30:38.171Z,44.55
2016-12-11T07:31:38.160Z,45.69
2016-12-11T07:32:38.143Z,45.31
2016-12-11T07:33:38.128Z,44.74
2016-12-11T07:34:38.116Z,44.46
2016-12-11T07:35:38.103Z,43.6
2016-12-11T07:36:38.086Z,43.13
2016-12-11T07:37:38.074Z,42.85
2016-12-11T07:38:38.064Z,41.61
2016-12-11T07:39:38.047Z,40.85
2016-12-11T07:40:38.032Z,40.19
2016-12-11T07:41:38.019Z,39.9
2016-12-11T07:42:38.005Z,38.86
2016-12-11T07:43:37.995Z,38.01
2016-12-11T07:44:37.978Z,36.59
2016-12-11T07:45:37.963Z,36.11
2016-12-11T07:46:37.958Z,34.41
2016-12-11T07:47:37.937Z,33.65
2016-12-11T07:48:37.921Z,33.65
2016-12-11T07:49:37.910Z,34.12
2016-12-11T07:50:37.895Z,33.37
2016-12-11T07:51:37.880Z,33.08
2016-12-11T07:52:37.871Z,32.98
2016-12-11T07:53:37.856Z,32.14
2016-12-11T07:54:37.842Z,31.75
2016-12-11T07:55:37.829Z,30.43
2016-12-11T07:56:37.815Z,30.24
2016-12-11T07:57:37.801Z,30.33
2016-12-11T07:58:37.786Z,30.24
2016-12-11T07:59:37.774Z,30.33
2016-12-11T08:00:37.758Z,30.71
2016-12-11T08:01:37.745Z,30.14
2016-12-11T08:02:37.733Z,30.05
2016-12-11T08:03:37.725Z,30.24
2016-12-11T08:04:37.705Z,29.95
2016-12-11T08:05:37.691Z,29.86
2016-12-11T08:06:37.679Z,29.57
2016-12-11T08:07:37.666Z,29.95
2016-12-11T08:08:37.652Z,29.49
2016-12-11T08:09:37.640Z,29.38
2016-12-11T08:10:37.622Z,30.62
2016-12-11T08:11:37.610Z,30.91
2016-12-11T08:12:37.597Z,30.9
2016-12-11T08:13:37.584Z,31.01
2016-12-11T08:14:37.568Z,32.43
2016-12-11T08:15:37.559Z,32.53
2016-12-11T08:16:37.547Z,32.43
2016-12-11T08:17:37.531Z,32.71
2016-12-11T08:18:37.516Z,32.81
2016-12-11T08:19:37.505Z,33
2016-12-11T08:20:37.490Z,34.14
2016-12-11T08:21:37.474Z,34.23
2016-12-11T08:22:37.462Z,33.95
2016-12-11T08:23:37.451Z,34.05
2016-12-11T08:24:37.433Z,33.57
2016-12-11T08:25:37.420Z,33.48
2016-12-11T08:26:37.410Z,33.67
2016-12-11T08:27:37.394Z,33.57
2016-12-11T08:28:37.379Z,33.95
2016-12-11T08:29:37.399Z,35.85
2016-12-11T08:30:37.355Z,35.57
2016-12-11T08:31:37.340Z,35.85
2016-12-11T08:32:37.329Z,36.22
2016-12-11T08:33:37.315Z,36.22
2016-12-11T08:34:37.619Z,36.32
2016-12-11T08:35:37.289Z,37.18
2016-12-11T08:36:37.275Z,37.18
2016-12-11T08:37:37.261Z,37.74
2016-12-11T08:38:37.246Z,37.74
2016-12-11T08:39:37.235Z,37.74
2016-12-11T08:40:37.227Z,38.12
2016-12-11T08:41:37.208Z,38.6
2016-12-11T08:42:37.195Z,38.98
2016-12-11T08:43:37.180Z,39.07
2016-12-11T08:44:37.169Z,39.17
2016-12-11T08:45:37.153Z,39.64
2016-12-11T08:46:37.141Z,39.64
2016-12-11T08:47:37.127Z,39.73
2016-12-11T08:48:37.143Z,39.36
2016-12-11T08:49:37.102Z,39.36
2016-12-11T08:50:37.088Z,39.73
2016-12-11T08:51:37.075Z,40.12
2016-12-11T08:52:37.061Z,40.21
2016-12-11T08:53:37.051Z,39.92
2016-12-11T08:54:37.040Z,40.31
2016-12-11T08:55:37.025Z,40.21
2016-12-11T08:56:37.008Z,40.88
2016-12-11T08:57:37.324Z,40.88
2016-12-11T08:58:36.985Z,41.16
2016-12-11T08:59:36.970Z,41.82
2016-12-11T09:00:36.960Z,43.24
2016-12-11T09:01:36.944Z,43.91
2016-12-11T09:02:37.244Z,43.91
2016-12-11T09:03:36.919Z,44.57
2016-12-11T09:04:36.904Z,44.85
2016-12-11T09:05:36.892Z,45.33
2016-12-11T09:06:36.880Z,45.71
2016-12-11T09:07:36.865Z,47.61
2016-12-11T09:08:36.853Z,47.71
2016-12-11T09:09:36.839Z,47.89
2016-12-11T09:10:36.826Z,49.6
2016-12-11T09:11:36.813Z,49.22
2016-12-11T09:12:36.800Z,48.94
2016-12-11T09:13:36.790Z,49.41
2016-12-11T09:14:36.772Z,48.46
2016-12-11T09:15:36.763Z,48.84
2016-12-11T09:16:36.749Z,48.94
2016-12-11T09:17:36.740Z,47.89
2016-12-11T09:18:36.722Z,47.89
2016-12-11T09:19:36.708Z,46.3
2016-12-11T09:20:36.696Z,45.14
2016-12-11T09:21:36.684Z,46.37
2016-12-11T09:22:36.667Z,46.28
2016-12-11T09:23:36.653Z,46.37
2016-12-11T09:24:36.644Z,47.52
2016-12-11T09:25:36.631Z,46.47
2016-12-11T09:26:36.618Z,45.71
2016-12-11T09:27:36.604Z,44.85
2016-12-11T09:28:36.592Z,44.48
2016-12-11T09:29:36.580Z,44.38
2016-12-11T09:30:36.571Z,43.53
2016-12-11T09:31:36.553Z,43.34
2016-12-11T09:32:36.548Z,43.05
2016-12-11T09:33:36.525Z,42.49
2016-12-11T09:34:36.515Z,41.63
2016-12-11T09:35:36.499Z,42.77
2016-12-11T09:36:36.488Z,42.01
2016-12-11T09:37:36.476Z,41.82
2016-12-11T09:38:36.461Z,42.11
2016-12-11T09:39:36.453Z,42.01
2016-12-11T09:40:36.436Z,41.25
2016-12-11T09:41:36.421Z,41.35
2016-12-11T09:42:36.410Z,40.31
2016-12-11T09:43:36.396Z,39.26
2016-12-11T09:44:36.383Z,38.79
2016-12-11T09:45:36.368Z,38.41
2016-12-11T09:46:36.355Z,39.36
2016-12-11T09:47:36.348Z,40.4
2016-12-11T09:48:36.327Z,38.31
2016-12-11T09:49:36.317Z,37.84
2016-12-11T09:50:36.302Z,36.51
2016-12-11T09:51:36.290Z,36.22
2016-12-11T09:52:36.278Z,36.61
2016-12-11T09:53:36.261Z,35.85
2016-12-11T09:54:36.251Z,35.09
2016-12-11T09:55:36.235Z,35.18
2016-12-11T09:56:36.224Z,35.09
2016-12-11T09:57:36.212Z,34.99
2016-12-11T09:58:36.197Z,35.47
2016-12-11T09:59:36.185Z,34.61
2016-12-11T10:00:36.171Z,34.14
2016-12-11T10:01:36.160Z,34.14
2016-12-11T10:02:36.146Z,33.95
2016-12-11T10:03:36.131Z,34.05
2016-12-11T10:04:36.119Z,33
2016-12-11T10:05:36.108Z,31.87
2016-12-11T10:06:36.091Z,30.91
2016-12-11T10:07:36.079Z,30.54
2016-12-11T10:08:36.068Z,30.35
2016-12-11T10:09:36.051Z,31.96
2016-12-11T10:10:36.040Z,33.38
2016-12-11T10:11:36.026Z,32.62
2016-12-11T10:12:36.013Z,31.96
2016-12-11T10:13:35.998Z,34.23
2016-12-11T10:14:35.985Z,33.95
2016-12-11T10:15:35.973Z,34.14
2016-12-11T10:16:35.960Z,35.18
2016-12-11T10:17:35.947Z,36.04
2016-12-11T10:18:35.933Z,37.65
2016-12-11T10:19:35.920Z,38.79
2016-12-11T10:20:35.906Z,37.65
2016-12-11T10:21:35.892Z,37.08
2016-12-11T10:22:35.883Z,38.98
2016-12-11T10:23:35.866Z,40.88
2016-12-11T10:24:35.853Z,40.59
2016-12-11T10:25:35.840Z,43.82
2016-12-11T10:26:35.833Z,44.29
2016-12-11T10:27:35.811Z,50.26
2016-12-11T10:28:35.800Z,50.45
2016-12-11T10:29:35.786Z,54.06
2016-12-11T10:30:35.774Z,56.52
2016-12-11T10:31:35.759Z,57.28
2016-12-11T10:32:35.746Z,64.78
2016-12-11T10:33:35.733Z,68.48
2016-12-11T10:34:35.726Z,69.04
2016-12-11T10:35:35.708Z,67.62
2016-12-11T10:36:35.692Z,66.67
2016-12-11T10:37:35.681Z,66.77
2016-12-11T10:38:35.665Z,67.52
2016-12-11T10:39:35.652Z,73.31
2016-12-11T10:40:35.641Z,70.75
2016-12-11T10:41:35.628Z,75.4
2016-12-11T10:42:35.611Z,77.01
2016-12-11T10:43:35.598Z,79.85
2016-12-11T10:44:35.585Z,80.71
2016-12-11T10:45:35.573Z,80.8
2016-12-11T10:46:35.559Z,82.04
2016-12-11T10:47:35.546Z,82.04
2016-12-11T10:48:35.533Z,81.66
2016-12-11T10:49:35.517Z,81.75
2016-12-11T10:50:35.508Z,80.14
2016-12-11T10:51:35.492Z,83.36
2016-12-11T10:52:35.479Z,81.94
2016-12-11T10:53:35.464Z,83.55
2016-12-11T10:54:35.452Z,84.22
2016-12-11T10:55:35.439Z,84.69
2016-12-11T10:56:35.426Z,85.83
2016-12-11T10:57:35.413Z,88.01
2016-12-11T10:58:35.398Z,87.25
2016-12-11T10:59:35.383Z,86.3
2016-12-11T11:00:35.372Z,86.97
2016-12-11T11:01:35.359Z,83.27
2016-12-11T11:02:35.345Z,81.47
2016-12-11T11:03:35.333Z,79.28
2016-12-11T11:04:35.318Z,79.1
2016-12-11T11:05:35.307Z,75.59
2016-12-11T11:06:35.291Z,74.35
2016-12-11T11:07:35.279Z,71.22
2016-12-11T11:08:35.265Z,70.56
2016-12-11T11:09:35.256Z,72.74
2016-12-11T11:10:35.239Z,71.89
2016-12-11T11:11:35.223Z,71.22
2016-12-11T11:12:35.215Z,74.35
2016-12-11T11:13:35.197Z,72.36
2016-12-11T11:14:35.184Z,71.89
2016-12-11T11:15:35.174Z,71.22
2016-12-11T11:16:35.157Z,70.18
2016-12-11T11:17:35.146Z,67.81
2016-12-11T11:18:35.131Z,66.58
2016-12-11T11:19:35.119Z,64.87
2016-12-11T11:20:35.102Z,62.97
2016-12-11T11:21:35.092Z,62.31
2016-12-11T11:22:35.077Z,63.07
2016-12-11T11:23:35.062Z,61.27
2016-12-11T11:24:35.055Z,59.37
2016-12-11T11:25:35.036Z,60.79
2016-12-11T11:26:35.343Z,62.69
2016-12-11T11:27:35.008Z,61.65
2016-12-11T11:28:35.025Z,60.13
2016-12-11T11:29:34.983Z,58.7
2016-12-11T11:30:34.969Z,57.85
2016-12-11T11:31:34.957Z,54.63
2016-12-11T11:32:34.943Z,55.86
2016-12-11T11:33:34.928Z,55.48
2016-12-11T11:34:34.916Z,51.68
2016-12-11T11:35:34.902Z,47.99
2016-12-11T11:36:34.889Z,45.24
2016-12-11T11:37:34.877Z,43.05
2016-12-11T11:38:34.864Z,41.63
2016-12-11T11:39:34.849Z,38.41
2016-12-11T11:40:34.835Z,35.66
2016-12-11T11:41:34.820Z,33.27
2016-12-11T11:42:34.806Z,32.7
2016-12-11T11:43:34.793Z,33.65
2016-12-11T11:44:34.783Z,31.37
2016-12-11T11:45:34.764Z,28.15
2016-12-11T11:46:34.755Z,29.19
2016-12-11T11:47:34.742Z,28.06
2016-12-11T11:48:34.727Z,26.64
2016-12-11T11:49:34.712Z,27.2
2016-12-11T11:50:34.703Z,27.77
2016-12-11T11:51:34.685Z,30.33
2016-12-11T11:52:34.671Z,30.33
2016-12-11T11:53:34.658Z,28.83
2016-12-11T11:54:34.650Z,27.39
2016-12-11T11:55:34.631Z,25.49
2016-12-11T11:56:34.617Z,26.36
2016-12-11T11:57:34.601Z,26.45
2016-12-11T11:58:34.589Z,27.31
2016-12-11T11:59:34.575Z,27.78
2016-12-11T12:00:34.563Z,27.68
2016-12-11T12:01:34.548Z,26.93
2016-12-11T12:02:34.536Z,26.45
2016-12-11T12:03:34.522Z,25.42
2016-12-11T12:04:34.506Z,25.31
2016-12-11T12:05:34.494Z,25.49
2016-12-11T12:06:34.480Z,25.31
2016-12-11T12:07:34.471Z,25.97
2016-12-11T12:08:34.456Z,26.75
2016-12-11T12:09:34.445Z,25.49
2016-12-11T12:10:34.427Z,25.59
2016-12-11T12:11:34.410Z,28.91
2016-12-11T12:12:34.441Z,35.64
2016-12-11T12:13:34.384Z,37.06
2016-12-11T12:14:34.370Z,38.39
2016-12-11T12:15:34.360Z,37.06
2016-12-11T12:16:34.342Z,35.45
2016-12-11T12:17:34.331Z,34.59
2016-12-11T12:18:34.316Z,33.08
2016-12-11T12:19:34.303Z,32.32
2016-12-11T12:20:34.290Z,31.37
2016-12-11T12:21:34.275Z,30.9
2016-12-11T12:22:34.264Z,30.52
2016-12-11T12:23:34.247Z,31.37
2016-12-11T12:24:34.236Z,35.07
2016-12-11T12:25:34.221Z,36.21
2016-12-11T12:26:34.210Z,34.88
2016-12-11T12:27:34.194Z,34.22
2016-12-11T12:28:34.179Z,34.12
2016-12-11T12:29:34.167Z,33.75
2016-12-11T12:30:34.151Z,31.68
2016-12-11T12:31:34.141Z,30.06
2016-12-11T12:32:34.126Z,30.73
2016-12-11T12:33:34.112Z,34.14
2016-12-11T12:34:34.098Z,36.13
2016-12-11T12:35:34.084Z,37.18
2016-12-11T12:36:34.070Z,40.21
2016-12-11T12:37:34.058Z,42.3
2016-12-11T12:38:34.047Z,42.86
2016-12-11T12:39:34.033Z,44.85
2016-12-11T12:40:34.018Z,45.24
2016-12-11T12:41:34.004Z,45.14
2016-12-11T12:42:33.992Z,46.19
2016-12-11T12:43:33.979Z,46.85
2016-12-11T12:44:33.967Z,46
2016-12-11T12:45:33.952Z,47.71
2016-12-11T12:46:33.938Z,45.52
2016-12-11T12:47:33.927Z,43.91
2016-12-11T12:48:33.911Z,43.05
2016-12-11T12:49:33.899Z,41.35
2016-12-11T12:50:33.884Z,41.82
2016-12-11T12:51:33.871Z,40.88
2016-12-11T12:52:33.859Z,38.41
2016-12-11T12:53:33.845Z,37.18
2016-12-11T12:54:33.832Z,36.04
2016-12-11T12:55:33.819Z,36.61